createdAt,value
2022-10-31T00:02:01.045Z,13.32
2022-10-31T00:04:46.290Z,12.35
2022-10-31T00:07:32.073Z,12.18
2022-10-31T00:10:18.024Z,13.90
2022-10-31T00:13:03.345Z,10.02
2022-10-31T00:15:48.946Z,12.18
2022-10-31T00:18:34.156Z,11.93
2022-10-31T00:21:20.823Z,10.38
2022-10-31T00:24:06.554Z,13.73
2022-10-31T00:26:52.331Z,8.73
2022-10-31T00:29:37.774Z,12.93
2022-10-31T00:32:23.360Z,13.95
2022-10-31T00:35:09.369Z,11.30
2022-10-31T00:37:54.775Z,9.25
2022-10-31T00:40:40.199Z,10.77
2022-10-31T00:43:26.016Z,9.60
2022-10-31T00:46:12.611Z,10.05
2022-10-31T00:48:58.177Z,12.05
2022-10-31T00:51:43.798Z,8.65
2022-10-31T00:54:29.419Z,9.95
2022-10-31T00:57:14.667Z,9.90
2022-10-31T01:00:00.342Z,10.82
2022-10-31T01:02:45.815Z,12.27
2022-10-31T01:05:31.241Z,11.20
2022-10-31T01:08:16.887Z,8.32
2022-10-31T01:11:12.606Z,14.13
2022-10-31T01:13:57.989Z,8.43
2022-10-31T01:16:43.514Z,11.05
2022-10-31T01:19:29.022Z,9.20
2022-10-31T01:22:14.442Z,8.63
2022-10-31T01:24:59.794Z,12.10
2022-10-31T01:27:45.548Z,11.57
2022-10-31T01:30:31.240Z,12.55
2022-10-31T01:33:16.487Z,10.57
2022-10-31T01:36:02.466Z,11.38
2022-10-31T01:38:48.547Z,9.23
2022-10-31T01:41:38.785Z,8.25
2022-10-31T01:44:23.848Z,11.70
2022-10-31T01:47:18.565Z,10.48
2022-10-31T01:50:10.804Z,14.13
2022-10-31T01:52:56.628Z,11.63
2022-10-31T01:55:45.140Z,12.65
2022-10-31T01:58:32.148Z,10.18
2022-10-31T02:01:19.187Z,10.45
2022-10-31T02:04:06.007Z,9.48
2022-10-31T02:06:57.386Z,7.43
2022-10-31T02:09:44.420Z,11.57
2022-10-31T02:12:32.644Z,8.40
2022-10-31T02:15:18.320Z,6.75
2022-10-31T02:18:04.755Z,9.40
2022-10-31T02:21:08.705Z,6.95
2022-10-31T02:24:20.556Z,7.63
2022-10-31T02:27:43.823Z,10.35
2022-10-31T02:30:43.351Z,11.20
2022-10-31T02:33:51.959Z,7.72
2022-10-31T02:36:56.762Z,11.10
2022-10-31T02:39:48.858Z,7.17
2022-10-31T02:42:48.022Z,8.77
2022-10-31T02:45:40.153Z,8.80
2022-10-31T02:48:29.664Z,10.52
2022-10-31T02:51:16.763Z,8.07
2022-10-31T02:54:02.168Z,7.68
2022-10-31T02:56:49.226Z,9.30
2022-10-31T02:59:37.090Z,10.00
2022-10-31T03:02:40.472Z,13.23
2022-10-31T03:05:50.771Z,11.57
2022-10-31T03:08:47.609Z,10.45
2022-10-31T03:11:45.425Z,9.25
2022-10-31T03:14:45.236Z,7.80
2022-10-31T03:17:38.408Z,7.38
2022-10-31T03:20:31.042Z,9.45
2022-10-31T03:23:18.834Z,7.93
2022-10-31T03:26:08.389Z,9.13
2022-10-31T03:29:09.961Z,10.23
2022-10-31T03:32:00.134Z,8.35
2022-10-31T03:34:47.008Z,9.63
2022-10-31T03:37:34.013Z,6.85
2022-10-31T03:40:22.741Z,12.52
2022-10-31T03:43:14.841Z,11.48
2022-10-31T03:46:00.725Z,6.93
2022-10-31T03:48:46.793Z,10.30
2022-10-31T03:51:49.952Z,9.25
2022-10-31T03:54:35.354Z,8.88
2022-10-31T03:57:48.594Z,7.25
2022-10-31T04:00:36.015Z,11.32
2022-10-31T04:03:34.588Z,8.45
2022-10-31T04:06:23.232Z,7.32
2022-10-31T04:09:10.400Z,11.45
2022-10-31T04:11:59.204Z,10.85
2022-10-31T04:14:48.778Z,10.20
2022-10-31T04:17:40.058Z,10.18
2022-10-31T04:20:42.906Z,11.00
2022-10-31T04:23:29.344Z,10.50
2022-10-31T04:26:15.110Z,11.45
2022-10-31T04:29:00.686Z,10.30
2022-10-31T04:31:46.632Z,11.88
2022-10-31T04:34:32.064Z,11.30
2022-10-31T04:37:17.468Z,8.13
2022-10-31T04:40:04.221Z,11.32
2022-10-31T04:42:50.138Z,10.73
2022-10-31T04:45:35.524Z,19.17
2022-10-31T04:48:21.063Z,14.73
2022-10-31T04:51:06.903Z,12.38
2022-10-31T04:53:52.582Z,10.75
2022-10-31T04:56:38.270Z,13.38
2022-10-31T04:59:23.757Z,11.65
2022-10-31T05:02:09.673Z,11.18
2022-10-31T05:04:55.444Z,8.45
2022-10-31T05:07:46.034Z,11.68
2022-10-31T05:10:32.695Z,10.27
2022-10-31T05:13:18.363Z,9.90
2022-10-31T05:16:04.308Z,6.47
2022-10-31T05:18:49.822Z,14.48
2022-10-31T05:21:35.574Z,12.80
2022-10-31T05:24:22.787Z,9.68
2022-10-31T05:27:08.201Z,12.05
2022-10-31T05:29:53.863Z,10.60
2022-10-31T05:32:45.064Z,9.82
2022-10-31T05:35:32.767Z,9.95
2022-10-31T05:38:18.267Z,9.13
2022-10-31T05:41:03.789Z,7.68
2022-10-31T05:43:49.438Z,11.85
2022-10-31T05:49:20.379Z,9.60
2022-10-31T05:52:05.707Z,10.95
2022-10-31T05:54:51.614Z,8.55
2022-10-31T05:57:37.228Z,8.40
2022-10-31T06:00:23.885Z,8.70
2022-10-31T06:03:10.627Z,10.65
2022-10-31T06:05:56.156Z,8.73
2022-10-31T06:08:42.313Z,8.38
2022-10-31T06:11:27.661Z,9.65
2022-10-31T06:14:13.059Z,9.80
2022-10-31T06:16:59.951Z,11.75
2022-10-31T06:19:46.190Z,16.08
2022-10-31T06:22:31.802Z,13.15
2022-10-31T06:25:17.600Z,15.07
2022-10-31T06:28:03.162Z,8.85
2022-10-31T06:30:48.675Z,23.30
2022-10-31T06:33:35.051Z,15.85
2022-10-31T06:36:20.422Z,15.23
2022-10-31T06:39:05.836Z,10.07
2022-10-31T06:41:51.182Z,10.00
2022-10-31T06:44:36.722Z,12.75
2022-10-31T06:47:24.505Z,9.25
2022-10-31T06:50:10.999Z,9.98
2022-10-31T06:52:58.843Z,8.15
2022-10-31T06:55:44.694Z,10.90
2022-10-31T06:58:30.396Z,15.15
2022-10-31T07:01:15.965Z,12.88
2022-10-31T07:04:02.222Z,12.88
2022-10-31T07:06:51.727Z,10.50
2022-10-31T07:09:37.611Z,9.05
2022-10-31T07:12:23.265Z,10.13
2022-10-31T07:15:08.754Z,9.45
2022-10-31T07:18:02.363Z,8.90
2022-10-31T07:20:48.700Z,8.80
2022-10-31T07:23:34.304Z,11.15
2022-10-31T07:26:19.726Z,8.88
2022-10-31T07:29:05.377Z,12.70
2022-10-31T07:31:50.830Z,8.98
2022-10-31T07:34:36.093Z,8.18
2022-10-31T07:37:21.639Z,10.20
2022-10-31T07:40:08.823Z,10.32
2022-10-31T07:42:54.866Z,12.07
2022-10-31T07:45:40.384Z,9.38
2022-10-31T07:48:25.943Z,9.57
2022-10-31T07:51:11.529Z,10.98
2022-10-31T07:53:57.250Z,9.02
2022-10-31T07:56:42.898Z,13.13
2022-10-31T07:59:28.395Z,10.82
2022-10-31T08:02:13.819Z,8.60
2022-10-31T08:05:01.470Z,8.88
2022-10-31T08:07:47.205Z,9.60
2022-10-31T08:10:33.358Z,7.65
2022-10-31T08:13:19.125Z,10.57
2022-10-31T08:16:05.524Z,10.55
2022-10-31T08:18:51.056Z,10.48
2022-10-31T08:21:36.686Z,9.55
2022-10-31T08:24:23.104Z,8.18
2022-10-31T08:27:08.445Z,10.63
2022-10-31T08:29:53.615Z,7.93
2022-10-31T08:32:39.152Z,11.13
2022-10-31T08:35:24.397Z,8.88
2022-10-31T08:38:12.176Z,8.90
2022-10-31T08:40:57.543Z,9.77
2022-10-31T08:43:43.202Z,7.07
2022-10-31T08:46:28.987Z,12.88
2022-10-31T08:49:14.665Z,12.18
2022-10-31T08:52:00.168Z,8.48
2022-10-31T08:54:45.560Z,12.63
2022-10-31T08:57:31.238Z,7.88
2022-10-31T09:00:17.074Z,8.90
2022-10-31T09:03:11.958Z,13.10
2022-10-31T09:06:00.564Z,10.05
2022-10-31T09:08:46.325Z,14.68
2022-10-31T09:11:32.399Z,11.48
2022-10-31T09:14:18.147Z,10.98
2022-10-31T09:17:03.713Z,12.00
2022-10-31T09:19:49.057Z,9.25
2022-10-31T09:22:34.601Z,9.13
2022-10-31T09:25:20.401Z,7.50
2022-10-31T09:28:07.587Z,11.07
2022-10-31T09:30:54.786Z,6.13
2022-10-31T09:33:39.903Z,11.95
2022-10-31T09:36:25.526Z,10.68
2022-10-31T09:39:11.198Z,13.60
2022-10-31T09:42:18.115Z,11.63
2022-10-31T09:45:22.219Z,8.40
2022-10-31T09:48:31.147Z,9.25
2022-10-31T09:52:00.975Z,8.40
2022-10-31T09:54:52.700Z,7.30
2022-10-31T09:57:39.670Z,6.90
2022-10-31T10:00:25.431Z,11.07
2022-10-31T10:03:25.658Z,8.27
2022-10-31T10:06:22.720Z,13.52
2022-10-31T10:09:10.777Z,11.75
2022-10-31T10:12:17.144Z,9.30
2022-10-31T10:15:40.306Z,8.10
2022-10-31T10:18:33.046Z,10.27
2022-10-31T10:21:18.404Z,11.88
2022-10-31T10:24:12.419Z,13.35
2022-10-31T10:27:20.665Z,8.55
2022-10-31T10:30:19.125Z,7.68
2022-10-31T10:33:10.612Z,12.50
2022-10-31T10:36:06.629Z,10.35
2022-10-31T10:39:00.741Z,7.80
2022-10-31T10:42:08.093Z,7.15
2022-10-31T10:45:11.893Z,12.77
2022-10-31T10:48:16.815Z,10.68
2022-10-31T10:51:03.950Z,14.15
2022-10-31T10:54:14.985Z,8.35
2022-10-31T10:57:12.712Z,9.60
2022-10-31T11:00:02.697Z,11.25
2022-10-31T11:02:49.251Z,8.13
2022-10-31T11:05:40.270Z,8.63
2022-10-31T11:08:27.758Z,9.00
2022-10-31T11:11:26.857Z,13.10
2022-10-31T11:14:17.743Z,10.82
2022-10-31T11:17:28.466Z,11.18
2022-10-31T11:20:17.849Z,12.45
2022-10-31T11:23:19.788Z,8.18
2022-10-31T11:26:07.166Z,8.75
2022-10-31T11:28:59.937Z,10.23
2022-10-31T11:31:47.425Z,9.45
2022-10-31T11:34:46.967Z,13.73
2022-10-31T11:37:36.504Z,9.85
2022-10-31T11:40:28.282Z,7.90
2022-10-31T11:43:18.600Z,10.35
2022-10-31T11:46:19.408Z,8.82
2022-10-31T11:49:06.488Z,8.60
2022-10-31T11:51:56.624Z,10.63
2022-10-31T11:55:01.864Z,12.30
2022-10-31T11:57:49.984Z,15.75
2022-10-31T12:00:39.369Z,9.20
2022-10-31T12:03:25.000Z,11.02
2022-10-31T12:06:24.711Z,8.10
2022-10-31T12:09:17.996Z,8.07
2022-10-31T12:12:31.248Z,8.80
2022-10-31T12:15:26.308Z,8.93
2022-10-31T12:18:32.936Z,7.35
2022-10-31T12:21:41.102Z,7.90
2022-10-31T12:24:48.207Z,10.48
2022-10-31T12:27:45.530Z,10.48
2022-10-31T12:31:03.170Z,11.02
2022-10-31T12:34:35.796Z,7.60
2022-10-31T12:37:43.904Z,11.77
2022-10-31T12:40:35.180Z,11.25
2022-10-31T12:43:57.766Z,9.32
2022-10-31T12:47:01.780Z,9.10
2022-10-31T12:50:11.419Z,9.13
2022-10-31T12:53:29.834Z,11.38
2022-10-31T12:56:30.497Z,10.68
2022-10-31T12:59:45.015Z,11.07
2022-10-31T13:02:42.634Z,8.68
2022-10-31T13:05:41.835Z,11.35
2022-10-31T13:08:39.205Z,8.25
2022-10-31T13:11:43.590Z,8.30
2022-10-31T13:14:36.592Z,7.85
2022-10-31T13:17:28.721Z,9.02
2022-10-31T13:20:29.326Z,8.27
2022-10-31T13:26:43.278Z,7.28
2022-10-31T13:29:37.062Z,11.27
2022-10-31T13:32:22.593Z,10.02
2022-10-31T13:35:34.071Z,7.82
2022-10-31T13:38:32.215Z,10.27
2022-10-31T13:41:54.089Z,11.45
2022-10-31T13:44:39.569Z,8.57
2022-10-31T13:47:28.572Z,6.63
2022-10-31T13:50:32.231Z,9.90
2022-10-31T13:53:23.036Z,13.90
2022-10-31T13:56:28.635Z,9.77
2022-10-31T13:59:20.632Z,8.70
2022-10-31T14:02:18.866Z,9.57
2022-10-31T14:05:07.783Z,10.40
2022-10-31T14:07:57.461Z,7.72
2022-10-31T14:10:52.618Z,9.23
2022-10-31T14:16:33.332Z,10.40
2022-10-31T14:19:20.856Z,6.85
2022-10-31T14:22:24.283Z,10.60
2022-10-31T14:25:33.526Z,9.70
2022-10-31T14:28:33.868Z,14.68
2022-10-31T14:31:33.153Z,14.07
2022-10-31T14:34:24.164Z,6.68
2022-10-31T14:37:28.245Z,12.25
2022-10-31T14:41:05.874Z,11.52
2022-10-31T14:44:28.583Z,8.40
2022-10-31T14:47:44.804Z,6.13
2022-10-31T14:50:42.098Z,8.68
2022-10-31T14:53:29.383Z,9.68
2022-10-31T14:56:29.501Z,7.18
2022-10-31T14:59:20.888Z,8.48
2022-10-31T15:02:16.000Z,10.35
2022-10-31T15:05:02.396Z,7.95
2022-10-31T15:07:56.972Z,9.07
2022-10-31T15:10:46.949Z,7.43
2022-10-31T15:13:32.318Z,9.55
2022-10-31T15:16:22.592Z,11.65
2022-10-31T15:19:13.093Z,9.93
2022-10-31T15:21:59.380Z,7.72
2022-10-31T15:24:45.974Z,11.48
2022-10-31T15:27:33.050Z,10.07
2022-10-31T15:30:27.238Z,10.40
2022-10-31T15:33:37.517Z,11.20
2022-10-31T15:36:29.134Z,10.05
2022-10-31T15:39:21.682Z,9.70
2022-10-31T15:42:30.028Z,9.82
2022-10-31T15:45:15.588Z,9.02
2022-10-31T15:48:14.729Z,6.28
2022-10-31T15:51:00.228Z,7.95
2022-10-31T15:53:52.514Z,12.48
2022-10-31T15:56:37.917Z,6.97
2022-10-31T15:59:28.260Z,9.07
2022-10-31T16:02:15.869Z,7.63
2022-10-31T16:05:02.656Z,10.00
2022-10-31T16:07:52.956Z,11.43
2022-10-31T16:10:38.438Z,10.88
2022-10-31T16:13:36.780Z,7.72
2022-10-31T16:16:38.415Z,9.40
2022-10-31T16:19:28.510Z,10.10
2022-10-31T16:22:20.864Z,9.73
2022-10-31T16:25:16.752Z,18.88
2022-10-31T16:30:59.983Z,10.05
2022-10-31T16:33:45.311Z,9.70
2022-10-31T16:36:35.612Z,11.40
2022-10-31T16:39:21.882Z,11.20
2022-10-31T16:42:11.400Z,12.82
2022-10-31T16:44:56.695Z,10.32
2022-10-31T16:47:42.490Z,10.98
2022-10-31T16:50:28.505Z,14.35
2022-10-31T16:53:16.831Z,19.45
2022-10-31T16:56:04.788Z,13.90
2022-10-31T16:58:50.765Z,10.85
2022-10-31T17:01:36.481Z,11.18
2022-10-31T17:04:22.297Z,10.35
2022-10-31T17:07:08.270Z,14.95
2022-10-31T17:09:53.840Z,11.23
2022-10-31T17:12:41.625Z,12.20
2022-10-31T17:15:28.768Z,10.65
2022-10-31T17:18:15.621Z,11.93
2022-10-31T17:21:06.155Z,16.67
2022-10-31T17:23:51.769Z,12.35
2022-10-31T17:26:36.996Z,13.60
2022-10-31T17:29:22.869Z,19.17
2022-10-31T17:32:08.138Z,11.85
2022-10-31T17:34:53.777Z,16.45
2022-10-31T17:37:42.869Z,19.55
2022-10-31T17:40:28.361Z,20.58
2022-10-31T17:43:14.026Z,12.10
2022-10-31T17:46:01.171Z,21.52
2022-10-31T17:48:46.732Z,19.55
2022-10-31T17:51:32.262Z,23.88
2022-10-31T17:54:18.903Z,20.85
2022-10-31T17:57:04.037Z,21.08
2022-10-31T17:59:50.065Z,21.80
2022-10-31T18:02:37.107Z,16.90
2022-10-31T18:05:22.809Z,15.60
2022-10-31T18:08:08.461Z,16.67
2022-10-31T18:10:55.001Z,19.98
2022-10-31T18:13:40.908Z,13.13
2022-10-31T18:16:26.621Z,12.52
2022-10-31T18:19:18.742Z,24.33
2022-10-31T18:22:04.057Z,22.27
2022-10-31T18:24:49.698Z,16.40
2022-10-31T18:27:35.248Z,22.10
2022-10-31T18:30:20.741Z,15.02
2022-10-31T18:33:06.667Z,11.45
2022-10-31T18:35:52.285Z,15.90
2022-10-31T18:38:42.779Z,17.05
2022-10-31T18:41:28.894Z,14.25
2022-10-31T18:44:14.258Z,15.73
2022-10-31T18:46:59.932Z,18.80
2022-10-31T18:49:45.455Z,19.13
2022-10-31T18:52:31.654Z,19.52
2022-10-31T18:55:17.716Z,17.17
2022-10-31T18:58:03.285Z,19.33
2022-10-31T19:00:48.769Z,20.90
2022-10-31T19:03:34.754Z,15.30
2022-10-31T19:06:20.478Z,19.05
2022-10-31T19:09:09.528Z,21.50
2022-10-31T19:11:54.879Z,23.27
2022-10-31T19:14:40.554Z,15.40
2022-10-31T19:17:26.157Z,10.18
2022-10-31T19:20:12.253Z,14.48
2022-10-31T19:22:57.893Z,15.98
2022-10-31T19:28:32.213Z,13.63
2022-10-31T19:31:18.971Z,18.85
2022-10-31T19:34:04.787Z,16.60
2022-10-31T19:36:50.251Z,17.08
2022-10-31T19:39:38.679Z,16.25
2022-10-31T19:42:29.230Z,14.35
2022-10-31T19:45:14.856Z,18.30
2022-10-31T19:48:00.900Z,20.63
2022-10-31T19:50:46.283Z,20.05
2022-10-31T19:53:32.553Z,18.00
2022-10-31T19:56:20.352Z,16.17
2022-10-31T19:59:05.859Z,17.08
2022-10-31T20:01:51.800Z,17.77
2022-10-31T20:04:37.229Z,17.80
2022-10-31T20:07:23.112Z,18.83
2022-10-31T20:10:08.882Z,21.77
2022-10-31T20:12:54.592Z,14.52
2022-10-31T20:15:40.073Z,14.38
2022-10-31T20:18:25.862Z,16.02
2022-10-31T20:21:14.406Z,25.13
2022-10-31T20:24:04.073Z,22.35
2022-10-31T20:26:49.753Z,20.27
2022-10-31T20:29:35.182Z,20.05
2022-10-31T20:32:21.374Z,21.25
2022-10-31T20:35:07.461Z,15.15
2022-10-31T20:37:52.979Z,15.55
2022-10-31T20:40:38.396Z,16.35
2022-10-31T20:43:24.017Z,15.60
2022-10-31T20:46:22.388Z,17.13
2022-10-31T20:49:08.205Z,14.45
2022-10-31T20:51:53.623Z,22.60
2022-10-31T20:54:39.107Z,21.83
2022-10-31T20:57:24.641Z,18.23
2022-10-31T21:00:13.965Z,16.95
2022-10-31T21:02:59.620Z,15.50
2022-10-31T21:05:59.393Z,17.98
2022-10-31T21:08:45.110Z,14.93
2022-10-31T21:11:31.935Z,16.40
2022-10-31T21:14:17.815Z,17.75
2022-10-31T21:17:04.031Z,27.48
2022-10-31T21:19:49.750Z,17.48
2022-10-31T21:22:35.494Z,15.25
2022-10-31T21:25:21.682Z,12.95
2022-10-31T21:28:08.329Z,14.50
2022-10-31T21:30:53.693Z,16.58
2022-10-31T21:33:40.150Z,20.45
2022-10-31T21:36:26.339Z,14.25
2022-10-31T21:39:11.894Z,22.17
2022-10-31T21:41:57.170Z,21.25
2022-10-31T21:44:42.650Z,23.10
2022-10-31T21:47:28.074Z,28.60
2022-10-31T21:50:14.146Z,18.98
2022-10-31T21:53:19.386Z,21.35
2022-10-31T22:01:37.740Z,21.15
2022-10-31T22:04:23.775Z,16.17
2022-10-31T22:07:09.110Z,16.02
2022-10-31T22:09:54.461Z,17.98
2022-10-31T22:12:40.023Z,18.35
2022-10-31T22:15:25.516Z,13.98
2022-10-31T22:18:11.055Z,15.05
2022-10-31T22:21:13.575Z,18.08
2022-10-31T22:24:03.275Z,17.88
2022-10-31T22:26:50.613Z,19.05
2022-10-31T22:29:37.593Z,18.33
2022-10-31T22:32:23.622Z,15.43
2022-10-31T22:35:09.271Z,17.27
2022-10-31T22:37:54.814Z,16.63
2022-10-31T22:40:40.304Z,18.08
2022-10-31T22:43:25.719Z,22.45
2022-10-31T22:46:13.939Z,20.67
2022-10-31T22:49:02.398Z,22.58
2022-10-31T22:51:51.226Z,15.88
2022-10-31T22:54:36.860Z,17.88
2022-10-31T22:57:22.371Z,19.00
2022-10-31T23:00:08.833Z,20.60
2022-10-31T23:02:54.210Z,19.17
2022-10-31T23:05:39.807Z,15.40
2022-10-31T23:08:26.622Z,17.42
2022-10-31T23:11:21.624Z,16.40
2022-10-31T23:14:10.784Z,19.42
2022-10-31T23:16:57.073Z,18.25
2022-10-31T23:19:42.853Z,14.77
2022-10-31T23:22:28.755Z,16.92
2022-10-31T23:25:32.966Z,17.02
2022-10-31T23:28:18.258Z,24.50
2022-10-31T23:31:04.277Z,19.95
2022-10-31T23:33:49.865Z,19.48
2022-10-31T23:36:35.141Z,11.70
2022-10-31T23:39:24.147Z,17.83
2022-10-31T23:42:11.065Z,18.65
2022-10-31T23:44:56.850Z,15.48
2022-10-31T23:47:43.404Z,20.05
2022-10-31T23:50:28.855Z,17.98
2022-10-31T23:53:14.508Z,14.80
2022-10-31T23:56:00.209Z,17.90
2022-10-31T23:58:45.827Z,16.75
